sensor_id;sensor_type;location;lat;lon;timestamp;P1;durP1;ratioP1;P2;durP2;ratioP2
20671;SDS011;10495;50.922;4.760;2023-07-29T00:00:52;1.60;;;1.50;;
20671;SDS011;10495;50.922;4.760;2023-07-29T00:03:18;2.70;;;1.37;;
20671;SDS011;10495;50.922;4.760;2023-07-29T00:05:43;1.50;;;1.40;;
20671;SDS011;10495;50.922;4.760;2023-07-29T00:08:09;1.52;;;1.42;;
20671;SDS011;10495;50.922;4.760;2023-07-29T00:10:35;1.70;;;1.45;;
20671;SDS011;10495;50.922;4.760;2023-07-29T00:13:02;1.63;;;1.45;;
20671;SDS011;10495;50.922;4.760;2023-07-29T00:15:29;2.03;;;1.45;;
20671;SDS011;10495;50.922;4.760;2023-07-29T00:17:54;1.65;;;1.55;;
20671;SDS011;10495;50.922;4.760;2023-07-29T00:20:20;1.30;;;1.20;;
20671;SDS011;10495;50.922;4.760;2023-07-29T00:22:45;1.48;;;1.38;;
20671;SDS011;10495;50.922;4.760;2023-07-29T00:25:11;1.73;;;1.38;;
20671;SDS011;10495;50.922;4.760;2023-07-29T00:27:37;2.17;;;1.55;;
20671;SDS011;10495;50.922;4.760;2023-07-29T00:30:02;1.30;;;1.20;;
20671;SDS011;10495;50.922;4.760;2023-07-29T00:32:29;1.70;;;1.50;;
20671;SDS011;10495;50.922;4.760;2023-07-29T00:34:55;3.13;;;1.50;;
20671;SDS011;10495;50.922;4.760;2023-07-29T00:37:21;2.08;;;1.58;;
20671;SDS011;10495;50.922;4.760;2023-07-29T00:39:47;1.87;;;1.53;;
20671;SDS011;10495;50.922;4.760;2023-07-29T00:42:12;3.13;;;1.40;;
20671;SDS011;10495;50.922;4.760;2023-07-29T00:44:38;3.30;;;1.65;;
20671;SDS011;10495;50.922;4.760;2023-07-29T00:47:04;1.70;;;1.50;;
20671;SDS011;10495;50.922;4.760;2023-07-29T00:49:30;3.27;;;1.60;;
20671;SDS011;10495;50.922;4.760;2023-07-29T00:51:57;3.47;;;1.80;;
20671;SDS011;10495;50.922;4.760;2023-07-29T00:54:23;2.05;;;1.55;;
20671;SDS011;10495;50.922;4.760;2023-07-29T00:56:48;1.85;;;1.75;;
20671;SDS011;10495;50.922;4.760;2023-07-29T00:59:14;1.70;;;1.17;;
20671;SDS011;10495;50.922;4.760;2023-07-29T01:01:40;2.03;;;1.48;;
20671;SDS011;10495;50.922;4.760;2023-07-29T01:04:07;1.63;;;1.53;;
20671;SDS011;10495;50.922;4.760;2023-07-29T01:09:37;2.20;;;1.63;;
20671;SDS011;10495;50.922;4.760;2023-07-29T01:14:51;2.20;;;1.60;;
20671;SDS011;10495;50.922;4.760;2023-07-29T01:17:30;8.23;;;1.87;;
20671;SDS011;10495;50.922;4.760;2023-07-29T01:20:04;3.20;;;1.30;;
20671;SDS011;10495;50.922;4.760;2023-07-29T01:22:33;1.67;;;1.23;;
20671;SDS011;10495;50.922;4.760;2023-07-29T01:25:00;1.60;;;1.50;;
20671;SDS011;10495;50.922;4.760;2023-07-29T01:27:26;2.80;;;1.20;;
20671;SDS011;10495;50.922;4.760;2023-07-29T01:29:52;2.10;;;1.50;;
20671;SDS011;10495;50.922;4.760;2023-07-29T01:32:29;1.43;;;1.33;;
20671;SDS011;10495;50.922;4.760;2023-07-29T01:37:36;1.50;;;1.30;;
20671;SDS011;10495;50.922;4.760;2023-07-29T01:40:03;1.70;;;1.40;;
20671;SDS011;10495;50.922;4.760;2023-07-29T01:42:32;1.57;;;1.47;;
20671;SDS011;10495;50.922;4.760;2023-07-29T01:44:57;1.07;;;0.97;;
20671;SDS011;10495;50.922;4.760;2023-07-29T01:47:23;1.30;;;1.20;;
20671;SDS011;10495;50.922;4.760;2023-07-29T01:49:49;2.30;;;1.50;;
20671;SDS011;10495;50.922;4.760;2023-07-29T01:52:14;1.40;;;1.30;;
20671;SDS011;10495;50.922;4.760;2023-07-29T01:54:40;1.67;;;1.40;;
20671;SDS011;10495;50.922;4.760;2023-07-29T01:57:05;1.20;;;1.10;;
20671;SDS011;10495;50.922;4.760;2023-07-29T01:59:31;2.17;;;1.20;;
20671;SDS011;10495;50.922;4.760;2023-07-29T02:01:57;1.50;;;1.40;;
20671;SDS011;10495;50.922;4.760;2023-07-29T02:04:22;1.20;;;1.10;;
20671;SDS011;10495;50.922;4.760;2023-07-29T02:06:48;1.33;;;1.07;;
20671;SDS011;10495;50.922;4.760;2023-07-29T02:09:13;1.27;;;1.10;;
20671;SDS011;10495;50.922;4.760;2023-07-29T02:11:39;1.67;;;1.37;;
20671;SDS011;10495;50.922;4.760;2023-07-29T02:14:05;1.23;;;1.13;;
20671;SDS011;10495;50.922;4.760;2023-07-29T02:16:30;2.53;;;1.20;;
20671;SDS011;10495;50.922;4.760;2023-07-29T02:18:57;4.00;;;1.27;;
20671;SDS011;10495;50.922;4.760;2023-07-29T02:21:23;2.50;;;1.20;;
20671;SDS011;10495;50.922;4.760;2023-07-29T02:23:48;1.50;;;1.20;;
20671;SDS011;10495;50.922;4.760;2023-07-29T02:26:14;2.53;;;1.00;;
20671;SDS011;10495;50.922;4.760;2023-07-29T02:28:42;2.33;;;1.10;;
20671;SDS011;10495;50.922;4.760;2023-07-29T02:31:17;1.30;;;1.20;;
20671;SDS011;10495;50.922;4.760;2023-07-29T02:33:45;1.17;;;1.07;;
20671;SDS011;10495;50.922;4.760;2023-07-29T02:36:11;1.27;;;1.10;;
20671;SDS011;10495;50.922;4.760;2023-07-29T02:38:38;1.33;;;1.10;;
20671;SDS011;10495;50.922;4.760;2023-07-29T02:41:04;1.20;;;1.10;;
20671;SDS011;10495;50.922;4.760;2023-07-29T02:43:30;3.10;;;1.27;;
20671;SDS011;10495;50.922;4.760;2023-07-29T02:45:56;1.10;;;1.00;;
20671;SDS011;10495;50.922;4.760;2023-07-29T02:48:21;1.60;;;1.30;;
20671;SDS011;10495;50.922;4.760;2023-07-29T02:50:47;3.50;;;1.40;;
20671;SDS011;10495;50.922;4.760;2023-07-29T02:53:13;3.60;;;1.40;;
20671;SDS011;10495;50.922;4.760;2023-07-29T02:55:41;2.80;;;1.17;;
20671;SDS011;10495;50.922;4.760;2023-07-29T02:58:07;5.27;;;1.60;;
20671;SDS011;10495;50.922;4.760;2023-07-29T03:00:33;1.50;;;1.40;;
20671;SDS011;10495;50.922;4.760;2023-07-29T03:02:58;1.80;;;1.40;;
20671;SDS011;10495;50.922;4.760;2023-07-29T03:05:26;3.93;;;1.30;;
20671;SDS011;10495;50.922;4.760;2023-07-29T03:07:52;1.60;;;1.40;;
20671;SDS011;10495;50.922;4.760;2023-07-29T03:10:18;2.60;;;1.37;;
20671;SDS011;10495;50.922;4.760;2023-07-29T03:12:44;2.97;;;1.93;;
20671;SDS011;10495;50.922;4.760;2023-07-29T03:15:09;1.93;;;1.40;;
20671;SDS011;10495;50.922;4.760;2023-07-29T03:17:35;2.27;;;1.73;;
20671;SDS011;10495;50.922;4.760;2023-07-29T03:20:01;1.40;;;1.30;;
20671;SDS011;10495;50.922;4.760;2023-07-29T03:22:26;2.13;;;1.10;;
20671;SDS011;10495;50.922;4.760;2023-07-29T03:24:52;2.00;;;1.40;;
20671;SDS011;10495;50.922;4.760;2023-07-29T03:27:17;2.80;;;1.77;;
20671;SDS011;10495;50.922;4.760;2023-07-29T03:29:43;2.87;;;1.60;;
20671;SDS011;10495;50.922;4.760;2023-07-29T03:32:09;2.17;;;1.63;;
20671;SDS011;10495;50.922;4.760;2023-07-29T03:34:34;1.63;;;1.50;;
20671;SDS011;10495;50.922;4.760;2023-07-29T03:37:00;2.00;;;1.47;;
20671;SDS011;10495;50.922;4.760;2023-07-29T03:39:26;2.40;;;1.40;;
20671;SDS011;10495;50.922;4.760;2023-07-29T03:41:52;1.87;;;1.30;;
20671;SDS011;10495;50.922;4.760;2023-07-29T03:44:17;4.70;;;1.43;;
20671;SDS011;10495;50.922;4.760;2023-07-29T03:46:43;2.00;;;1.63;;
20671;SDS011;10495;50.922;4.760;2023-07-29T03:49:09;3.10;;;1.00;;
20671;SDS011;10495;50.922;4.760;2023-07-29T03:51:35;2.47;;;1.50;;
20671;SDS011;10495;50.922;4.760;2023-07-29T03:54:01;2.93;;;1.57;;
20671;SDS011;10495;50.922;4.760;2023-07-29T03:56:26;3.73;;;1.97;;
20671;SDS011;10495;50.922;4.760;2023-07-29T03:58:52;2.40;;;1.73;;
20671;SDS011;10495;50.922;4.760;2023-07-29T04:01:18;2.33;;;1.67;;
20671;SDS011;10495;50.922;4.760;2023-07-29T04:03:44;1.93;;;1.33;;
20671;SDS011;10495;50.922;4.760;2023-07-29T04:06:11;3.43;;;1.40;;
20671;SDS011;10495;50.922;4.760;2023-07-29T04:08:37;2.43;;;1.60;;
20671;SDS011;10495;50.922;4.760;2023-07-29T04:11:02;2.90;;;1.90;;
20671;SDS011;10495;50.922;4.760;2023-07-29T04:13:28;2.13;;;1.60;;
20671;SDS011;10495;50.922;4.760;2023-07-29T04:15:54;3.90;;;1.80;;
20671;SDS011;10495;50.922;4.760;2023-07-29T04:18:19;2.70;;;1.80;;
20671;SDS011;10495;50.922;4.760;2023-07-29T04:20:45;3.73;;;1.50;;
20671;SDS011;10495;50.922;4.760;2023-07-29T04:23:10;3.23;;;1.73;;
20671;SDS011;10495;50.922;4.760;2023-07-29T04:25:36;2.50;;;1.43;;
20671;SDS011;10495;50.922;4.760;2023-07-29T04:28:01;2.40;;;1.70;;
20671;SDS011;10495;50.922;4.760;2023-07-29T04:30:28;4.57;;;1.70;;
20671;SDS011;10495;50.922;4.760;2023-07-29T04:32:54;2.33;;;1.73;;
20671;SDS011;10495;50.922;4.760;2023-07-29T04:35:19;2.20;;;1.50;;
20671;SDS011;10495;50.922;4.760;2023-07-29T04:37:45;5.37;;;1.70;;
20671;SDS011;10495;50.922;4.760;2023-07-29T04:40:13;3.27;;;1.73;;
20671;SDS011;10495;50.922;4.760;2023-07-29T04:42:39;2.70;;;1.70;;
20671;SDS011;10495;50.922;4.760;2023-07-29T04:45:04;2.10;;;1.90;;
20671;SDS011;10495;50.922;4.760;2023-07-29T04:47:30;2.80;;;1.90;;
20671;SDS011;10495;50.922;4.760;2023-07-29T04:49:56;1.77;;;1.40;;
20671;SDS011;10495;50.922;4.760;2023-07-29T04:52:21;3.53;;;1.60;;
20671;SDS011;10495;50.922;4.760;2023-07-29T04:54:47;2.90;;;1.60;;
20671;SDS011;10495;50.922;4.760;2023-07-29T04:57:13;3.27;;;1.70;;
20671;SDS011;10495;50.922;4.760;2023-07-29T04:59:38;2.60;;;1.63;;
20671;SDS011;10495;50.922;4.760;2023-07-29T05:02:04;2.27;;;1.53;;
20671;SDS011;10495;50.922;4.760;2023-07-29T05:04:30;3.07;;;1.60;;
20671;SDS011;10495;50.922;4.760;2023-07-29T05:06:55;2.30;;;1.83;;
20671;SDS011;10495;50.922;4.760;2023-07-29T05:09:21;2.00;;;1.70;;
20671;SDS011;10495;50.922;4.760;2023-07-29T05:11:46;2.87;;;1.53;;
20671;SDS011;10495;50.922;4.760;2023-07-29T05:14:14;5.93;;;2.20;;
20671;SDS011;10495;50.922;4.760;2023-07-29T05:16:41;1.83;;;1.53;;
20671;SDS011;10495;50.922;4.760;2023-07-29T05:19:06;2.30;;;1.70;;
20671;SDS011;10495;50.922;4.760;2023-07-29T05:21:32;2.10;;;1.40;;
20671;SDS011;10495;50.922;4.760;2023-07-29T05:23:58;2.70;;;1.20;;
20671;SDS011;10495;50.922;4.760;2023-07-29T05:26:23;2.40;;;1.80;;
20671;SDS011;10495;50.922;4.760;2023-07-29T05:28:49;1.80;;;1.33;;
20671;SDS011;10495;50.922;4.760;2023-07-29T05:31:15;2.60;;;1.30;;
20671;SDS011;10495;50.922;4.760;2023-07-29T05:33:40;4.30;;;1.50;;
20671;SDS011;10495;50.922;4.760;2023-07-29T05:36:06;1.90;;;1.70;;
20671;SDS011;10495;50.922;4.760;2023-07-29T05:38:31;4.80;;;1.50;;
20671;SDS011;10495;50.922;4.760;2023-07-29T05:40:57;1.50;;;1.30;;
20671;SDS011;10495;50.922;4.760;2023-07-29T05:43:26;2.60;;;1.80;;
20671;SDS011;10495;50.922;4.760;2023-07-29T05:45:52;3.17;;;1.50;;
20671;SDS011;10495;50.922;4.760;2023-07-29T05:48:19;4.93;;;1.40;;
20671;SDS011;10495;50.922;4.760;2023-07-29T05:50:45;1.30;;;1.20;;
20671;SDS011;10495;50.922;4.760;2023-07-29T05:53:10;1.97;;;1.10;;
20671;SDS011;10495;50.922;4.760;2023-07-29T05:55:36;4.87;;;1.80;;
20671;SDS011;10495;50.922;4.760;2023-07-29T05:58:01;3.03;;;1.47;;
20671;SDS011;10495;50.922;4.760;2023-07-29T06:00:27;2.60;;;1.50;;
20671;SDS011;10495;50.922;4.760;2023-07-29T06:02:53;1.93;;;1.20;;
20671;SDS011;10495;50.922;4.760;2023-07-29T06:05:18;4.13;;;1.47;;
20671;SDS011;10495;50.922;4.760;2023-07-29T06:07:44;4.07;;;1.70;;
20671;SDS011;10495;50.922;4.760;2023-07-29T06:10:13;3.35;;;1.45;;
20671;SDS011;10495;50.922;4.760;2023-07-29T06:12:43;1.70;;;1.13;;
20671;SDS011;10495;50.922;4.760;2023-07-29T06:15:09;2.33;;;1.00;;
20671;SDS011;10495;50.922;4.760;2023-07-29T06:17:35;1.42;;;1.17;;
20671;SDS011;10495;50.922;4.760;2023-07-29T06:20:00;1.73;;;1.43;;
20671;SDS011;10495;50.922;4.760;2023-07-29T06:22:26;2.57;;;1.30;;
20671;SDS011;10495;50.922;4.760;2023-07-29T06:24:52;2.03;;;1.27;;
20671;SDS011;10495;50.922;4.760;2023-07-29T06:27:17;1.63;;;1.20;;
20671;SDS011;10495;50.922;4.760;2023-07-29T06:29:43;2.10;;;1.37;;
20671;SDS011;10495;50.922;4.760;2023-07-29T06:32:08;2.73;;;1.17;;
20671;SDS011;10495;50.922;4.760;2023-07-29T06:34:34;1.80;;;1.30;;
20671;SDS011;10495;50.922;4.760;2023-07-29T06:36:59;2.58;;;1.27;;
20671;SDS011;10495;50.922;4.760;2023-07-29T06:39:25;6.05;;;1.52;;
20671;SDS011;10495;50.922;4.760;2023-07-29T06:41:50;1.55;;;1.10;;
20671;SDS011;10495;50.922;4.760;2023-07-29T06:44:16;1.75;;;1.30;;
20671;SDS011;10495;50.922;4.760;2023-07-29T06:46:42;3.42;;;1.40;;
20671;SDS011;10495;50.922;4.760;2023-07-29T06:49:07;5.10;;;1.20;;
20671;SDS011;10495;50.922;4.760;2023-07-29T06:51:33;5.97;;;1.10;;
20671;SDS011;10495;50.922;4.760;2023-07-29T06:54:00;1.23;;;1.13;;
20671;SDS011;10495;50.922;4.760;2023-07-29T06:56:26;2.10;;;0.98;;
20671;SDS011;10495;50.922;4.760;2023-07-29T06:58:52;3.10;;;1.43;;
20671;SDS011;10495;50.922;4.760;2023-07-29T07:01:18;1.88;;;1.15;;
20671;SDS011;10495;50.922;4.760;2023-07-29T07:03:43;2.90;;;1.27;;
20671;SDS011;10495;50.922;4.760;2023-07-29T07:06:09;3.17;;;1.65;;
20671;SDS011;10495;50.922;4.760;2023-07-29T07:08:35;1.42;;;1.10;;
20671;SDS011;10495;50.922;4.760;2023-07-29T07:11:00;1.63;;;0.98;;
20671;SDS011;10495;50.922;4.760;2023-07-29T07:13:26;3.17;;;1.23;;
20671;SDS011;10495;50.922;4.760;2023-07-29T07:15:54;1.90;;;1.30;;
20671;SDS011;10495;50.922;4.760;2023-07-29T07:18:20;3.13;;;1.30;;
20671;SDS011;10495;50.922;4.760;2023-07-29T07:20:48;2.13;;;1.02;;
20671;SDS011;10495;50.922;4.760;2023-07-29T07:23:14;2.13;;;1.08;;
20671;SDS011;10495;50.922;4.760;2023-07-29T07:25:40;1.45;;;1.10;;
20671;SDS011;10495;50.922;4.760;2023-07-29T07:28:07;4.32;;;1.40;;
20671;SDS011;10495;50.922;4.760;2023-07-29T07:30:34;2.50;;;1.38;;
20671;SDS011;10495;50.922;4.760;2023-07-29T07:32:59;2.40;;;1.02;;
20671;SDS011;10495;50.922;4.760;2023-07-29T07:35:25;1.70;;;0.95;;
20671;SDS011;10495;50.922;4.760;2023-07-29T07:37:51;1.02;;;0.90;;
20671;SDS011;10495;50.922;4.760;2023-07-29T07:40:16;1.67;;;0.98;;
20671;SDS011;10495;50.922;4.760;2023-07-29T07:42:42;1.58;;;0.98;;
20671;SDS011;10495;50.922;4.760;2023-07-29T07:45:07;2.78;;;1.15;;
20671;SDS011;10495;50.922;4.760;2023-07-29T07:47:33;1.45;;;0.98;;
20671;SDS011;10495;50.922;4.760;2023-07-29T07:49:59;1.08;;;0.90;;
20671;SDS011;10495;50.922;4.760;2023-07-29T07:52:24;3.15;;;1.10;;
20671;SDS011;10495;50.922;4.760;2023-07-29T07:54:53;1.27;;;1.10;;
20671;SDS011;10495;50.922;4.760;2023-07-29T07:57:22;2.03;;;1.10;;
20671;SDS011;10495;50.922;4.760;2023-07-29T07:59:48;1.55;;;1.17;;
20671;SDS011;10495;50.922;4.760;2023-07-29T08:02:14;2.42;;;1.30;;
20671;SDS011;10495;50.922;4.760;2023-07-29T08:04:39;2.25;;;1.15;;
20671;SDS011;10495;50.922;4.760;2023-07-29T08:07:05;1.77;;;1.10;;
20671;SDS011;10495;50.922;4.760;2023-07-29T08:09:30;2.53;;;1.02;;
20671;SDS011;10495;50.922;4.760;2023-07-29T08:11:56;3.50;;;1.20;;
20671;SDS011;10495;50.922;4.760;2023-07-29T08:14:22;1.77;;;1.05;;
20671;SDS011;10495;50.922;4.760;2023-07-29T08:16:47;1.92;;;1.10;;
20671;SDS011;10495;50.922;4.760;2023-07-29T08:19:13;1.30;;;1.20;;
20671;SDS011;10495;50.922;4.760;2023-07-29T08:21:39;1.10;;;0.85;;
20671;SDS011;10495;50.922;4.760;2023-07-29T08:24:04;2.22;;;1.00;;
20671;SDS011;10495;50.922;4.760;2023-07-29T08:26:31;0.82;;;0.82;;
20671;SDS011;10495;50.922;4.760;2023-07-29T08:28:57;1.20;;;0.90;;
20671;SDS011;10495;50.922;4.760;2023-07-29T08:31:22;1.13;;;0.75;;
20671;SDS011;10495;50.922;4.760;2023-07-29T08:33:48;1.75;;;1.10;;
20671;SDS011;10495;50.922;4.760;2023-07-29T08:36:14;1.70;;;1.20;;
20671;SDS011;10495;50.922;4.760;2023-07-29T08:38:39;2.10;;;0.95;;
20671;SDS011;10495;50.922;4.760;2023-07-29T08:43:44;1.00;;;0.90;;
20671;SDS011;10495;50.922;4.760;2023-07-29T08:46:18;2.45;;;1.20;;
20671;SDS011;10495;50.922;4.760;2023-07-29T08:48:45;1.33;;;1.10;;
20671;SDS011;10495;50.922;4.760;2023-07-29T08:51:11;5.40;;;1.27;;
20671;SDS011;10495;50.922;4.760;2023-07-29T08:53:38;1.80;;;0.98;;
20671;SDS011;10495;50.922;4.760;2023-07-29T08:56:04;1.98;;;1.10;;
20671;SDS011;10495;50.922;4.760;2023-07-29T08:58:32;1.95;;;1.20;;
20671;SDS011;10495;50.922;4.760;2023-07-29T09:00:59;2.00;;;1.00;;
20671;SDS011;10495;50.922;4.760;2023-07-29T09:03:25;3.03;;;1.40;;
20671;SDS011;10495;50.922;4.760;2023-07-29T09:05:51;1.30;;;1.02;;
20671;SDS011;10495;50.922;4.760;2023-07-29T09:08:19;1.48;;;1.00;;
20671;SDS011;10495;50.922;4.760;2023-07-29T09:10:46;1.40;;;1.00;;
20671;SDS011;10495;50.922;4.760;2023-07-29T09:13:12;1.23;;;1.13;;
20671;SDS011;10495;50.922;4.760;2023-07-29T09:15:37;2.35;;;1.10;;
20671;SDS011;10495;50.922;4.760;2023-07-29T09:18:11;2.22;;;1.50;;
20671;SDS011;10495;50.922;4.760;2023-07-29T09:20:39;1.55;;;1.20;;
20671;SDS011;10495;50.922;4.760;2023-07-29T09:23:06;1.63;;;1.30;;
20671;SDS011;10495;50.922;4.760;2023-07-29T09:25:35;1.33;;;1.20;;
20671;SDS011;10495;50.922;4.760;2023-07-29T09:28:02;1.50;;;1.20;;
20671;SDS011;10495;50.922;4.760;2023-07-29T09:30:37;2.00;;;1.35;;
20671;SDS011;10495;50.922;4.760;2023-07-29T09:33:03;1.75;;;1.20;;
20671;SDS011;10495;50.922;4.760;2023-07-29T09:35:29;1.73;;;1.20;;
20671;SDS011;10495;50.922;4.760;2023-07-29T09:37:57;2.53;;;1.17;;
20671;SDS011;10495;50.922;4.760;2023-07-29T09:40:23;2.45;;;1.27;;
20671;SDS011;10495;50.922;4.760;2023-07-29T09:42:49;4.30;;;1.58;;
20671;SDS011;10495;50.922;4.760;2023-07-29T09:45:22;3.40;;;1.40;;
20671;SDS011;10495;50.922;4.760;2023-07-29T09:47:49;1.75;;;1.27;;
20671;SDS011;10495;50.922;4.760;2023-07-29T09:50:16;5.43;;;1.65;;
20671;SDS011;10495;50.922;4.760;2023-07-29T09:52:42;1.40;;;1.20;;
20671;SDS011;10495;50.922;4.760;2023-07-29T09:55:09;1.50;;;1.35;;
20671;SDS011;10495;50.922;4.760;2023-07-29T09:57:39;1.50;;;1.30;;
20671;SDS011;10495;50.922;4.760;2023-07-29T10:00:05;1.40;;;1.30;;
20671;SDS011;10495;50.922;4.760;2023-07-29T10:02:36;1.73;;;1.40;;
20671;SDS011;10495;50.922;4.760;2023-07-29T10:05:05;2.08;;;1.55;;
20671;SDS011;10495;50.922;4.760;2023-07-29T10:07:33;1.77;;;1.27;;
20671;SDS011;10495;50.922;4.760;2023-07-29T10:10:00;1.90;;;1.25;;
20671;SDS011;10495;50.922;4.760;2023-07-29T10:12:28;1.88;;;1.23;;
20671;SDS011;10495;50.922;4.760;2023-07-29T10:14:55;2.63;;;1.55;;
20671;SDS011;10495;50.922;4.760;2023-07-29T10:17:25;3.65;;;1.40;;
20671;SDS011;10495;50.922;4.760;2023-07-29T10:19:51;2.38;;;1.55;;
20671;SDS011;10495;50.922;4.760;2023-07-29T10:22:19;2.15;;;1.48;;
20671;SDS011;10495;50.922;4.760;2023-07-29T10:24:46;2.65;;;1.70;;
20671;SDS011;10495;50.922;4.760;2023-07-29T10:27:14;1.50;;;1.25;;
20671;SDS011;10495;50.922;4.760;2023-07-29T10:29:44;2.38;;;1.45;;
20671;SDS011;10495;50.922;4.760;2023-07-29T10:32:11;2.05;;;1.45;;
20671;SDS011;10495;50.922;4.760;2023-07-29T10:34:37;1.63;;;1.42;;
20671;SDS011;10495;50.922;4.760;2023-07-29T10:37:03;1.92;;;1.38;;
20671;SDS011;10495;50.922;4.760;2023-07-29T10:39:39;1.77;;;1.65;;
20671;SDS011;10495;50.922;4.760;2023-07-29T10:42:06;3.35;;;1.50;;
20671;SDS011;10495;50.922;4.760;2023-07-29T10:47:13;1.85;;;1.30;;
20671;SDS011;10495;50.922;4.760;2023-07-29T10:49:42;1.30;;;1.20;;
20671;SDS011;10495;50.922;4.760;2023-07-29T10:52:11;2.38;;;1.63;;
20671;SDS011;10495;50.922;4.760;2023-07-29T10:54:45;5.35;;;1.42;;
20671;SDS011;10495;50.922;4.760;2023-07-29T10:57:15;2.00;;;1.60;;
20671;SDS011;10495;50.922;4.760;2023-07-29T10:59:55;1.35;;;1.23;;
20671;SDS011;10495;50.922;4.760;2023-07-29T11:02:22;1.52;;;1.42;;
20671;SDS011;10495;50.922;4.760;2023-07-29T11:04:57;2.10;;;1.38;;
20671;SDS011;10495;50.922;4.760;2023-07-29T11:07:25;5.03;;;1.75;;
20671;SDS011;10495;50.922;4.760;2023-07-29T11:09:52;2.65;;;1.60;;
20671;SDS011;10495;50.922;4.760;2023-07-29T11:15:13;5.13;;;2.72;;
20671;SDS011;10495;50.922;4.760;2023-07-29T11:17:44;1.73;;;1.58;;
20671;SDS011;10495;50.922;4.760;2023-07-29T11:20:25;1.90;;;1.48;;
20671;SDS011;10495;50.922;4.760;2023-07-29T11:22:55;2.47;;;1.88;;
20671;SDS011;10495;50.922;4.760;2023-07-29T11:25:22;1.70;;;1.60;;
20671;SDS011;10495;50.922;4.760;2023-07-29T11:27:50;2.03;;;1.70;;
20671;SDS011;10495;50.922;4.760;2023-07-29T11:30:17;1.92;;;1.73;;
20671;SDS011;10495;50.922;4.760;2023-07-29T11:32:44;1.70;;;1.60;;
20671;SDS011;10495;50.922;4.760;2023-07-29T11:35:12;2.13;;;1.75;;
20671;SDS011;10495;50.922;4.760;2023-07-29T11:37:40;1.60;;;1.50;;
20671;SDS011;10495;50.922;4.760;2023-07-29T11:40:07;2.25;;;1.63;;
20671;SDS011;10495;50.922;4.760;2023-07-29T11:42:35;1.90;;;1.50;;
20671;SDS011;10495;50.922;4.760;2023-07-29T11:45:04;2.03;;;1.52;;
20671;SDS011;10495;50.922;4.760;2023-07-29T11:47:34;2.17;;;1.77;;
20671;SDS011;10495;50.922;4.760;2023-07-29T11:50:01;3.05;;;1.70;;
20671;SDS011;10495;50.922;4.760;2023-07-29T11:52:34;2.65;;;2.05;;
20671;SDS011;10495;50.922;4.760;2023-07-29T11:55:01;2.90;;;1.95;;
20671;SDS011;10495;50.922;4.760;2023-07-29T11:57:29;4.00;;;2.30;;
20671;SDS011;10495;50.922;4.760;2023-07-29T11:59:55;2.47;;;1.70;;
20671;SDS011;10495;50.922;4.760;2023-07-29T12:02:21;2.28;;;1.60;;
20671;SDS011;10495;50.922;4.760;2023-07-29T12:04:49;2.20;;;1.95;;
20671;SDS011;10495;50.922;4.760;2023-07-29T12:07:16;3.20;;;1.80;;
20671;SDS011;10495;50.922;4.760;2023-07-29T12:09:43;1.92;;;1.77;;
20671;SDS011;10495;50.922;4.760;2023-07-29T12:12:09;2.47;;;1.80;;
20671;SDS011;10495;50.922;4.760;2023-07-29T12:14:35;1.67;;;1.58;;
20671;SDS011;10495;50.922;4.760;2023-07-29T12:17:01;1.50;;;1.40;;
20671;SDS011;10495;50.922;4.760;2023-07-29T12:19:32;2.40;;;1.77;;
20671;SDS011;10495;50.922;4.760;2023-07-29T12:21:59;3.25;;;1.70;;
20671;SDS011;10495;50.922;4.760;2023-07-29T12:24:25;1.75;;;1.65;;
20671;SDS011;10495;50.922;4.760;2023-07-29T12:26:51;2.10;;;1.55;;
20671;SDS011;10495;50.922;4.760;2023-07-29T12:29:18;2.92;;;1.50;;
20671;SDS011;10495;50.922;4.760;2023-07-29T12:31:47;2.22;;;1.50;;
20671;SDS011;10495;50.922;4.760;2023-07-29T12:34:17;1.70;;;1.60;;
20671;SDS011;10495;50.922;4.760;2023-07-29T12:36:50;1.98;;;1.70;;
20671;SDS011;10495;50.922;4.760;2023-07-29T12:39:17;1.63;;;1.52;;
20671;SDS011;10495;50.922;4.760;2023-07-29T12:41:43;1.85;;;1.75;;
20671;SDS011;10495;50.922;4.760;2023-07-29T12:44:08;1.90;;;1.80;;
20671;SDS011;10495;50.922;4.760;2023-07-29T12:46:34;2.78;;;1.88;;
20671;SDS011;10495;50.922;4.760;2023-07-29T12:49:00;4.32;;;1.98;;
20671;SDS011;10495;50.922;4.760;2023-07-29T12:51:25;2.80;;;2.00;;
20671;SDS011;10495;50.922;4.760;2023-07-29T12:53:51;3.40;;;2.40;;
20671;SDS011;10495;50.922;4.760;2023-07-29T12:56:17;6.38;;;2.25;;
20671;SDS011;10495;50.922;4.760;2023-07-29T12:58:42;3.47;;;2.08;;
20671;SDS011;10495;50.922;4.760;2023-07-29T13:01:08;2.33;;;2.03;;
20671;SDS011;10495;50.922;4.760;2023-07-29T13:03:34;2.75;;;2.20;;
20671;SDS011;10495;50.922;4.760;2023-07-29T13:05:59;2.72;;;2.00;;
20671;SDS011;10495;50.922;4.760;2023-07-29T13:08:25;2.65;;;1.98;;
20671;SDS011;10495;50.922;4.760;2023-07-29T13:10:51;2.20;;;2.00;;
20671;SDS011;10495;50.922;4.760;2023-07-29T13:13:16;3.05;;;2.10;;
20671;SDS011;10495;50.922;4.760;2023-07-29T13:15:42;2.63;;;2.17;;
20671;SDS011;10495;50.922;4.760;2023-07-29T13:18:07;3.50;;;2.00;;
20671;SDS011;10495;50.922;4.760;2023-07-29T13:20:33;2.72;;;2.20;;
20671;SDS011;10495;50.922;4.760;2023-07-29T13:22:59;3.10;;;2.22;;
20671;SDS011;10495;50.922;4.760;2023-07-29T13:25:25;5.43;;;2.10;;
20671;SDS011;10495;50.922;4.760;2023-07-29T13:27:50;3.85;;;2.35;;
20671;SDS011;10495;50.922;4.760;2023-07-29T13:30:16;2.20;;;1.95;;
20671;SDS011;10495;50.922;4.760;2023-07-29T13:32:41;2.40;;;2.20;;
20671;SDS011;10495;50.922;4.760;2023-07-29T13:35:07;2.75;;;1.95;;
20671;SDS011;10495;50.922;4.760;2023-07-29T13:37:33;2.53;;;2.13;;
20671;SDS011;10495;50.922;4.760;2023-07-29T13:39:58;2.67;;;2.40;;
20671;SDS011;10495;50.922;4.760;2023-07-29T13:42:24;2.00;;;1.80;;
20671;SDS011;10495;50.922;4.760;2023-07-29T13:44:50;4.85;;;2.03;;
20671;SDS011;10495;50.922;4.760;2023-07-29T13:47:15;3.22;;;2.00;;
20671;SDS011;10495;50.922;4.760;2023-07-29T13:49:41;2.03;;;1.83;;
20671;SDS011;10495;50.922;4.760;2023-07-29T13:52:06;2.88;;;1.77;;
20671;SDS011;10495;50.922;4.760;2023-07-29T13:54:32;2.00;;;1.90;;
20671;SDS011;10495;50.922;4.760;2023-07-29T13:56:58;3.17;;;1.95;;
20671;SDS011;10495;50.922;4.760;2023-07-29T13:59:23;2.05;;;1.85;;
20671;SDS011;10495;50.922;4.760;2023-07-29T14:01:49;1.85;;;1.75;;
20671;SDS011;10495;50.922;4.760;2023-07-29T14:04:14;1.50;;;1.40;;
20671;SDS011;10495;50.922;4.760;2023-07-29T14:06:40;2.00;;;1.90;;
20671;SDS011;10495;50.922;4.760;2023-07-29T14:09:06;2.15;;;1.95;;
20671;SDS011;10495;50.922;4.760;2023-07-29T14:11:32;2.10;;;1.90;;
20671;SDS011;10495;50.922;4.760;2023-07-29T14:13:57;2.20;;;2.00;;
20671;SDS011;10495;50.922;4.760;2023-07-29T14:16:23;2.22;;;2.03;;
20671;SDS011;10495;50.922;4.760;2023-07-29T14:18:49;2.00;;;1.90;;
20671;SDS011;10495;50.922;4.760;2023-07-29T14:21:14;2.25;;;2.00;;
20671;SDS011;10495;50.922;4.760;2023-07-29T14:23:40;2.20;;;1.80;;
20671;SDS011;10495;50.922;4.760;2023-07-29T14:26:06;2.00;;;1.85;;
20671;SDS011;10495;50.922;4.760;2023-07-29T14:28:34;1.75;;;1.65;;
20671;SDS011;10495;50.922;4.760;2023-07-29T14:31:01;1.80;;;1.70;;
20671;SDS011;10495;50.922;4.760;2023-07-29T14:33:26;2.38;;;2.17;;
20671;SDS011;10495;50.922;4.760;2023-07-29T14:35:52;2.05;;;1.85;;
20671;SDS011;10495;50.922;4.760;2023-07-29T14:38:19;2.47;;;1.73;;
20671;SDS011;10495;50.922;4.760;2023-07-29T14:40:47;2.05;;;1.85;;
20671;SDS011;10495;50.922;4.760;2023-07-29T14:43:13;3.63;;;1.60;;
20671;SDS011;10495;50.922;4.760;2023-07-29T14:45:38;1.80;;;1.70;;
20671;SDS011;10495;50.922;4.760;2023-07-29T14:48:04;2.20;;;1.80;;
20671;SDS011;10495;50.922;4.760;2023-07-29T14:50:30;1.95;;;1.33;;
20671;SDS011;10495;50.922;4.760;2023-07-29T14:52:55;1.75;;;1.65;;
20671;SDS011;10495;50.922;4.760;2023-07-29T14:55:21;1.52;;;1.35;;
20671;SDS011;10495;50.922;4.760;2023-07-29T14:57:47;1.50;;;1.40;;
20671;SDS011;10495;50.922;4.760;2023-07-29T15:00:12;2.30;;;1.45;;